Stations météo

réclame
Mon MeteoGroup
Getafe Airbase, Espagne (8225): Température de l'air & dewpoint: 19.06.2018 15:00:00 - 25.06.2018 15:00:00 (CEST)Getafe Airbase, Espagne (8225): Vitesse du vent: 19.06.2018 15:00:00 - 25.06.2018 15:00:00 (CEST)Getafe Airbase, Espagne (8225): Direction du vent: 19.06.2018 15:00:00 - 25.06.2018 15:00:00 (CEST)Getafe Airbase, Espagne (8225): visibility: 19.06.2018 15:00:00 - 25.06.2018 15:00:00 (CEST)
Date & Time tt [°C] td [°C] ff [km/h] ff [knt] dd vv [km]
25.06.2018 15:00:00 35,0 16,0 5 3 - 10
25.06.2018 14:00:00 33,0 17,0 9 5 SE 10
25.06.2018 13:00:00 31,0 16,0 9 5 E 10
25.06.2018 12:00:00 29,0 16,0 9 5 ENE 10
25.06.2018 11:00:00 27,0 16,0 8 4 E 10
25.06.2018 10:00:00 26,0 15,0 11 6 ENE 10
25.06.2018 09:00:00 25,0 12,0 8 4 E 10
25.06.2018 08:00:00 22,0 12,0 5 3 ENE 10
25.06.2018 07:00:00 20,0 10,0 8 4 E 10
25.06.2018 06:00:00 - - - - - -
25.06.2018 05:00:00 - - - - - -
25.06.2018 04:00:00 - - - - - -
25.06.2018 03:00:00 - - - - - -
25.06.2018 02:00:00 - - - - - -
25.06.2018 01:00:00 - - - - - -
25.06.2018 00:00:00 - - - - - -
24.06.2018 23:00:00 - - - - - -
24.06.2018 22:00:00 - - - - - -
24.06.2018 21:00:00 35,0 7,0 4 2 - 10
24.06.2018 20:00:00 37,0 6,0 9 5 W 10
24.06.2018 19:00:00 37,0 7,0 9 5 W 10
24.06.2018 18:00:00 37,0 8,0 5 3 W 10
24.06.2018 17:00:00 37,0 7,0 8 4 NW 10
24.06.2018 16:00:00 36,0 12,0 8 4 WSW 10
24.06.2018 15:00:00 35,0 13,0 5 3 S 10
24.06.2018 14:00:00 33,0 14,0 4 2 - 10
24.06.2018 13:00:00 30,0 14,0 5 3 W 10
24.06.2018 12:00:00 29,0 14,0 4 2 - 10
24.06.2018 11:00:00 27,0 14,0 5 3 ESE 10
24.06.2018 10:00:00 25,0 14,0 8 4 E 10
24.06.2018 09:00:00 23,0 13,0 11 6 ENE 10
24.06.2018 08:00:00 21,0 13,0 9 5 ENE 10
24.06.2018 07:00:00 20,0 12,0 9 5 ENE 10
24.06.2018 06:00:00 - - - - - -
24.06.2018 05:00:00 - - - - - -
24.06.2018 04:00:00 - - - - - -
24.06.2018 03:00:00 - - - - - -
24.06.2018 02:00:00 - - - - - -
24.06.2018 01:00:00 - - - - - -
24.06.2018 00:00:00 - - - - - -
23.06.2018 23:00:00 - - - - - -
23.06.2018 22:00:00 - - - - - -
23.06.2018 21:00:00 34,0 9,0 8 4 SE 10
23.06.2018 20:00:00 35,0 8,0 4 2 - 10
23.06.2018 19:00:00 37,0 9,0 2 1 - 10
23.06.2018 18:00:00 36,0 10,0 9 5 SE 10
23.06.2018 17:00:00 35,0 9,0 4 2 - 10
23.06.2018 16:00:00 35,0 9,0 4 2 - 10
23.06.2018 15:00:00 34,0 10,0 5 3 ESE 10
23.06.2018 14:00:00 33,0 13,0 5 3 S 10
23.06.2018 13:00:00 31,0 13,0 5 3 NE 10
23.06.2018 12:00:00 29,0 12,0 8 4 NE 10
23.06.2018 11:00:00 27,0 13,0 8 4 ENE 10
23.06.2018 10:00:00 26,0 13,0 9 5 E 10
23.06.2018 09:00:00 24,0 15,0 11 6 NE 10
23.06.2018 08:00:00 22,0 15,0 11 6 ENE 10
23.06.2018 07:00:00 20,0 15,0 9 5 NE 10
23.06.2018 06:00:00 - - - - - -
23.06.2018 05:00:00 - - - - - -
23.06.2018 04:00:00 - - - - - -
23.06.2018 03:00:00 - - - - - -
23.06.2018 02:00:00 - - - - - -
23.06.2018 01:00:00 - - - - - -
23.06.2018 00:00:00 - - - - - -
22.06.2018 23:00:00 - - - - - -
22.06.2018 22:00:00 - - - - - -
22.06.2018 21:00:00 - - - - - -
22.06.2018 20:00:00 33,0 8,0 5 3 - 10
22.06.2018 19:00:00 34,0 8,0 4 2 - 10
22.06.2018 18:00:00 35,0 9,0 5 3 - 10
22.06.2018 17:00:00 34,0 8,0 8 4 E 10
22.06.2018 16:00:00 34,0 9,0 16 9 S 10
22.06.2018 15:00:00 32,0 10,0 9 5 NE 10
22.06.2018 14:00:00 32,0 10,0 9 5 SE 10
22.06.2018 13:00:00 31,0 11,0 5 3 - 10
22.06.2018 12:00:00 29,0 11,0 5 3 - 10
22.06.2018 11:00:00 27,0 11,0 8 4 SE 10
22.06.2018 10:00:00 26,0 11,0 9 5 E 10
22.06.2018 09:00:00 24,0 12,0 11 6 NE 10
22.06.2018 08:00:00 21,0 11,0 8 4 E 10
22.06.2018 07:00:00 19,0 10,0 9 5 NE 10
22.06.2018 06:00:00 - - - - - -
22.06.2018 05:00:00 - - - - - -
22.06.2018 04:00:00 - - - - - -
22.06.2018 03:00:00 - - - - - -
22.06.2018 02:00:00 - - - - - -
22.06.2018 01:00:00 - - - - - -
22.06.2018 00:00:00 - - - - - -
21.06.2018 23:00:00 - - - - - -
21.06.2018 22:00:00 - - - - - -
21.06.2018 21:00:00 31,0 7,0 11 6 ESE 10
21.06.2018 20:00:00 33,0 6,0 13 7 E 10
21.06.2018 19:00:00 33,0 6,0 8 4 E 10
21.06.2018 18:00:00 33,0 7,0 13 7 ESE 10
21.06.2018 17:00:00 34,0 8,0 11 6 E 10
21.06.2018 16:00:00 32,0 7,0 11 6 ENE 10
21.06.2018 15:00:00 32,0 8,0 11 6 - 10
21.06.2018 14:00:00 30,0 9,0 13 7 ENE 10
21.06.2018 13:00:00 29,0 9,0 8 4 ESE 10
21.06.2018 12:00:00 28,0 9,0 9 5 SE 10
21.06.2018 11:00:00 27,0 10,0 8 4 E 10
21.06.2018 10:00:00 25,0 9,0 13 7 ESE 10
21.06.2018 09:00:00 24,0 11,0 8 4 E 10
21.06.2018 08:00:00 20,0 12,0 4 2 ESE 10
21.06.2018 07:00:00 20,0 11,0 8 4 E 10
21.06.2018 06:00:00 - - - - - -
21.06.2018 05:00:00 - - - - - -
21.06.2018 04:00:00 - - - - - -
21.06.2018 03:00:00 - - - - - -
21.06.2018 02:00:00 - - - - - -
21.06.2018 01:00:00 - - - - - -
21.06.2018 00:00:00 - - - - - -
20.06.2018 23:00:00 - - - - - -
20.06.2018 22:00:00 - - - - - -
20.06.2018 21:00:00 31,0 12,0 5 3 - 10
20.06.2018 20:00:00 33,0 12,0 5 3 ESE 10
20.06.2018 19:00:00 33,0 11,0 5 3 - 10
20.06.2018 18:00:00 32,0 10,0 8 4 - 10
20.06.2018 17:00:00 33,0 11,0 9 5 - 10
20.06.2018 16:00:00 33,0 12,0 4 2 - 10
20.06.2018 15:00:00 31,0 11,0 9 5 SE 10
20.06.2018 14:00:00 31,0 12,0 5 3 SSW 10
20.06.2018 13:00:00 29,0 12,0 9 5 ENE 10
20.06.2018 12:00:00 28,0 13,0 8 4 ESE 10
20.06.2018 11:00:00 26,0 13,0 11 6 ENE 10
20.06.2018 10:00:00 24,0 13,0 13 7 ENE 10
20.06.2018 09:00:00 23,0 13,0 13 7 NE 10
20.06.2018 08:00:00 21,0 12,0 11 6 ENE 10
20.06.2018 07:00:00 20,0 12,0 15 8 ENE 10
20.06.2018 06:00:00 - - - - - -
20.06.2018 05:00:00 - - - - - -
20.06.2018 04:00:00 - - - - - -
20.06.2018 03:00:00 - - - - - -
20.06.2018 02:00:00 - - - - - -
20.06.2018 01:00:00 - - - - - -
20.06.2018 00:00:00 - - - - - -
19.06.2018 23:00:00 27,0 12,0 11 6 E 10
19.06.2018 22:00:00 29,0 12,0 0 0 N 10
19.06.2018 21:00:00 32,0 11,0 0 0 N 10
19.06.2018 20:00:00 31,0 13,0 4 2 N 10
19.06.2018 19:00:00 32,0 11,0 0 0 N 10
19.06.2018 18:00:00 33,0 12,0 8 4 SSW 10
19.06.2018 17:00:00 32,0 12,0 5 3 SSE 10
19.06.2018 16:00:00 32,0 12,0 4 2 - 10
19.06.2018 15:00:00 31,0 12,0 11 6 S 10

tt = Température de l'air
td = dewpoint
ff = Vitesse du vent
dd = Direction du vent
vv = visibility

stations d'obs. à proximité